Partly Cloudy Current Weather (METAR) For Manchester Airport

All times on the weather descriptions are local

Observed at 07:20 - (18 mins ago)

Partly Cloudy

14°C

Partly Cloudy
Clouds: Few Clouds at 1,100ft, Scattered Clouds at 2,100ft
Wind: 200° at 03 knots
Visibility: 7,000m
QNH: 1018
Dew Point: 13°C
Runway in Use: Runways 23L/R

Sunrise Today: 05:19
Sunset Today: 21:11

Forecast Weather (TAF) For Manchester Airport

Issued at 01:00 - (1 day 17 hrs ago)


Runway in Use: Likely Runways 23L/R

Forecast valid until 01:00 on Thursday

METAR/TAF RAW METAR / TAF

EGCC 290620Z 20003KT 7000 FEW011 SCT021 14/13 Q1018

Weather Widget

Put weather from any of our airports on your website with our weather widget.

Find Another Search

Airport Search


Please Wait Please Wait - Loading
Close
Close

Login

Username:

Password:

Remember Me:

Remember me on this computer

Forgotten your password? Get a reset password sent to your registered e-mail address

Close

User Private Message

Subject:

Message: